Time;durP1;ratioP1;P1;durP2;ratioP2;P2;SDS_P1;SDS_P2;PMS_P1;PMS_P2;Temp;Humidity;BMP_temperature;BMP_pressure;BME280_temperature;BME280_humidity;BME280_pressure;Samples;Min_cycle;Max_cycle;Signal;HPM_P1;HPM_P2
2022/03/15 00:01:25;;;;;;;26.30;14.27;;;;;;;-3.70;66.25;97449.00;1694932;84;21030;-68
2022/03/15 00:03:52;;;;;;;22.63;11.83;;;;;;;-3.66;65.72;97447.50;1695076;84;21058;-68
2022/03/15 00:06:19;;;;;;;23.33;11.30;;;;;;;-3.65;65.55;97444.16;1695025;85;20964;-68
2022/03/15 00:08:45;;;;;;;20.60;9.80;;;;;;;-3.56;65.30;97436.98;1694834;84;21026;-68
2022/03/15 00:11:12;;;;;;;19.37;11.40;;;;;;;-3.66;65.29;97417.84;1695226;85;21039;-68
2022/03/15 00:13:41;;;;;;;17.17;9.80;;;;;;;-3.67;65.05;97415.18;1695002;84;21026;-68
2022/03/15 00:16:10;;;;;;;18.87;10.20;;;;;;;-3.68;64.79;97416.84;1694974;84;21003;-68
2022/03/15 00:18:38;;;;;;;20.67;9.43;;;;;;;-3.70;64.34;97412.00;1694994;85;21059;-68
2022/03/15 00:21:10;;;;;;;21.70;11.43;;;;;;;-3.81;64.51;97407.81;1695027;85;21536;-68
2022/03/15 00:23:35;;;;;;;17.67;10.37;;;;;;;-3.92;65.56;97405.42;1677655;85;21123;-68
2022/03/15 00:26:01;;;;;;;23.27;12.80;;;;;;;-3.83;66.26;97405.52;1695079;84;21486;-68
2022/03/15 00:28:29;;;;;;;22.07;11.83;;;;;;;-3.72;65.72;97401.57;1694873;84;21059;-68
2022/03/15 00:30:59;;;;;;;21.73;12.53;;;;;;;-3.74;66.17;97394.13;1694896;84;21027;-69
2022/03/15 00:33:29;;;;;;;19.40;11.23;;;;;;;-3.81;66.58;97384.59;1695230;84;21011;-68
2022/03/15 00:35:56;;;;;;;25.80;11.00;;;;;;;-3.87;65.52;97391.55;1694778;84;21069;-68
2022/03/15 00:38:24;;;;;;;20.07;10.30;;;;;;;-3.78;65.81;97397.69;1720104;83;21091;-68
2022/03/15 00:40:53;;;;;;;19.87;11.17;;;;;;;-3.83;66.23;97396.50;1702954;84;21026;-68
2022/03/15 00:43:21;;;;;;;20.80;10.90;;;;;;;-3.87;66.34;97414.75;1720018;83;21103;-68
2022/03/15 00:45:50;;;;;;;23.90;12.30;;;;;;;-3.85;66.53;97424.78;1703083;83;21087;-68
2022/03/15 00:48:16;;;;;;;24.50;14.23;;;;;;;-3.91;66.99;97429.52;1719944;83;21022;-68
2022/03/15 00:50:44;;;;;;;36.37;16.67;;;;;;;-4.05;67.32;97429.02;1702706;84;21473;-68
2022/03/15 00:53:11;;;;;;;19.67;9.37;;;;;;;-4.12;66.54;97430.28;1719972;83;21063;-68
2022/03/15 00:55:39;;;;;;;17.47;11.47;;;;;;;-4.15;66.15;97435.23;1703020;84;21026;-68
2022/03/15 00:58:06;;;;;;;20.57;11.47;;;;;;;-4.08;66.56;97432.66;1720005;83;21122;-68
2022/03/15 01:00:35;;;;;;;23.60;12.33;;;;;;;-3.94;66.21;97421.59;1702963;84;21030;-68
2022/03/15 01:03:03;;;;;;;24.23;12.27;;;;;;;-3.80;66.00;97410.50;1719929;83;21054;-68
2022/03/15 01:05:30;;;;;;;25.47;12.90;;;;;;;-3.72;65.25;97405.44;1702905;83;21509;-68
2022/03/15 01:07:57;;;;;;;36.90;16.03;;;;;;;-3.79;66.01;97407.12;1719998;83;21000;-68
2022/03/15 01:10:24;;;;;;;31.47;14.77;;;;;;;-3.80;65.82;97413.08;1703127;83;21561;-68
2022/03/15 01:12:51;;;;;;;36.70;17.47;;;;;;;-3.79;65.96;97408.41;1719791;83;20968;-68
2022/03/15 01:15:18;;;;;;;19.77;11.40;;;;;;;-3.85;66.20;97403.27;1703018;84;21091;-68
2022/03/15 01:17:45;;;;;;;16.57;8.97;;;;;;;-3.92;65.53;97407.11;1720014;83;20991;-69
2022/03/15 01:20:12;;;;;;;21.70;11.23;;;;;;;-4.02;65.69;97404.72;1716084;84;21566;-68
2022/03/15 01:22:39;;;;;;;19.70;11.17;;;;;;;-4.08;65.77;97395.27;1716430;83;21054;-68
2022/03/15 01:25:08;;;;;;;19.27;10.30;;;;;;;-4.05;65.36;97391.63;1695620;83;21023;-68
2022/03/15 01:27:37;;;;;;;18.07;10.77;;;;;;;-4.01;65.45;97400.05;1703126;84;21027;-68
2022/03/15 01:30:07;;;;;;;22.57;11.00;;;;;;;-3.97;66.98;97399.06;1719987;83;20995;-68
2022/03/15 01:32:34;;;;;;;19.50;9.97;;;;;;;-4.00;66.83;97399.28;1702739;83;21521;-68
2022/03/15 01:35:00;;;;;;;19.20;10.53;;;;;;;-3.93;66.06;97395.03;1719835;83;21040;-68
2022/03/15 01:37:27;;;;;;;20.20;10.33;;;;;;;-3.79;65.84;97392.05;1702923;84;21066;-68
2022/03/15 01:39:56;;;;;;;21.07;11.70;;;;;;;-3.75;65.69;97387.59;1704588;84;21058;-67
2022/03/15 01:42:22;;;;;;;19.87;10.87;;;;;;;-3.71;65.28;97395.61;1695784;84;21020;-68
2022/03/15 01:44:50;;;;;;;19.17;10.63;;;;;;;-3.65;65.48;97401.95;1719924;83;21490;-68
2022/03/15 01:47:18;;;;;;;14.77;8.70;;;;;;;-3.60;65.13;97398.02;1702945;84;21082;-68
2022/03/15 01:49:46;;;;;;;18.10;10.97;;;;;;;-3.58;65.34;97404.14;1719928;82;21019;-68
2022/03/15 01:52:15;;;;;;;23.00;10.73;;;;;;;-3.85;65.73;97402.86;1702843;84;21073;-68
2022/03/15 01:54:43;;;;;;;19.40;11.33;;;;;;;-4.06;65.79;97402.31;1719779;83;21000;-68
2022/03/15 01:57:10;;;;;;;18.17;10.70;;;;;;;-4.18;66.58;97395.97;1702912;84;21078;-68
2022/03/15 01:59:39;;;;;;;18.73;10.23;;;;;;;-4.06;66.51;97401.43;1706173;83;21553;-68
2022/03/15 02:02:06;;;;;;;18.50;9.63;;;;;;;-3.90;66.17;97399.09;1702856;84;21134;-68
2022/03/15 02:04:34;;;;;;;17.03;10.27;;;;;;;-3.81;65.88;97406.52;1720034;83;21023;-68
2022/03/15 02:07:05;;;;;;;18.77;9.40;;;;;;;-3.71;65.66;97404.63;1702758;83;21485;-68
2022/03/15 02:09:32;;;;;;;15.30;7.90;;;;;;;-3.67;65.21;97404.86;1719914;83;21050;-68
2022/03/15 02:11:59;;;;;;;24.63;11.90;;;;;;;-3.67;65.01;97409.61;1703092;84;21497;-68
2022/03/15 02:14:26;;;;;;;16.43;9.97;;;;;;;-3.89;67.00;97410.29;1719905;83;21486;-68
2022/03/15 02:16:54;;;;;;;14.00;7.43;;;;;;;-3.99;66.81;97410.96;1702908;83;21149;-68
2022/03/15 02:19:22;;;;;;;18.63;8.47;;;;;;;-4.03;66.42;97405.12;1720026;83;21007;-68
2022/03/15 02:21:50;;;;;;;12.03;6.10;;;;;;;-3.99;66.41;97403.23;1702883;83;21019;-68
2022/03/15 02:24:17;;;;;;;18.37;9.17;;;;;;;-4.09;66.92;97403.41;1716519;84;21471;-68
2022/03/15 02:26:44;;;;;;;16.53;9.03;;;;;;;-4.10;66.82;97396.88;1716264;84;21054;-68
2022/03/15 02:29:10;;;;;;;19.87;9.57;;;;;;;-3.98;66.88;97393.80;1716439;83;21463;-68
2022/03/15 02:31:38;;;;;;;19.17;9.70;;;;;;;-4.01;66.26;97399.64;1716393;83;21018;-68
2022/03/15 02:34:05;;;;;;;19.43;10.33;;;;;;;-3.94;67.50;97404.83;1716431;83;21011;-68
2022/03/15 02:36:31;;;;;;;16.90;9.53;;;;;;;-3.90;68.04;97400.38;1715737;83;21014;-68
2022/03/15 02:38:59;;;;;;;14.53;8.53;;;;;;;-3.97;67.94;97404.23;1699599;84;21492;-68
2022/03/15 02:41:26;;;;;;;18.60;10.53;;;;;;;-3.95;67.51;97398.78;1712735;83;21035;-68
2022/03/15 02:43:56;;;;;;;13.97;8.63;;;;;;;-3.99;66.58;97399.36;1712688;83;21051;-68
2022/03/15 02:46:24;;;;;;;14.23;8.23;;;;;;;-4.03;66.61;97408.98;1712847;84;21035;-68
2022/03/15 02:48:52;;;;;;;17.53;8.73;;;;;;;-4.06;66.67;97415.61;1712835;83;21007;-68
2022/03/15 02:51:19;;;;;;;15.53;7.77;;;;;;;-4.04;67.03;97409.77;1712468;84;21055;-68
2022/03/15 02:53:46;;;;;;;14.23;7.37;;;;;;;-4.01;66.53;97405.20;1712839;83;21450;-68
2022/03/15 02:56:13;;;;;;;9.80;5.50;;;;;;;-4.08;66.83;97400.42;1712496;84;21019;-68
2022/03/15 02:58:41;;;;;;;12.87;7.57;;;;;;;-4.17;67.59;97392.98;1712681;84;20997;-68
2022/03/15 03:01:09;;;;;;;12.23;7.73;;;;;;;-4.35;67.69;97383.64;1712745;83;21501;-68
2022/03/15 03:03:36;;;;;;;14.17;7.27;;;;;;;-4.37;67.67;97386.09;1712660;84;21509;-68
2022/03/15 03:06:03;;;;;;;13.50;8.93;;;;;;;-4.33;67.40;97383.72;1712742;84;21007;-68
2022/03/15 03:08:30;;;;;;;16.40;8.73;;;;;;;-4.33;68.07;97386.30;1712700;84;21083;-68
2022/03/15 03:10:59;;;;;;;14.33;8.10;;;;;;;-4.26;68.07;97401.02;1713157;84;21019;-68
2022/03/15 03:13:26;;;;;;;17.47;8.93;;;;;;;-4.21;68.78;97412.53;1712714;84;21023;-68
2022/03/15 03:16:00;;;;;;;16.03;8.50;;;;;;;-4.11;68.90;97416.98;1712732;83;21548;-68
2022/03/15 03:18:30;;;;;;;;;;;;;;;-4.13;68.30;97406.59;1715260;83;20996;-68
2022/03/15 03:20:56;;;;;;;13.03;7.40;;;;;;;-4.23;68.12;97399.92;1712710;83;20197;-68
2022/03/15 03:23:23;;;;;;;13.03;7.07;;;;;;;-4.10;68.46;97399.05;1712872;83;21529;-68
2022/03/15 03:25:50;;;;;;;18.47;7.33;;;;;;;-3.92;68.04;97400.27;1712697;84;20992;-68
2022/03/15 03:28:17;;;;;;;13.33;6.73;;;;;;;-3.93;67.46;97397.20;1712655;84;21023;-68
2022/03/15 03:30:46;;;;;;;11.27;6.77;;;;;;;-3.95;67.02;97394.91;1712727;84;21010;-68
2022/03/15 03:33:15;;;;;;;37.30;16.43;;;;;;;-3.99;66.86;97386.47;1712684;84;21039;-68
2022/03/15 03:35:43;;;;;;;44.97;21.00;;;;;;;-3.98;66.84;97388.64;1712647;84;21039;-69
2022/03/15 03:38:12;;;;;;;14.43;8.33;;;;;;;-4.02;67.04;97390.55;1712587;83;21139;-68
2022/03/15 03:40:39;;;;;;;17.43;9.43;;;;;;;-3.93;67.52;97395.03;1712728;83;21084;-68
2022/03/15 03:43:06;;;;;;;22.23;9.50;;;;;;;-3.93;67.92;97393.73;1712731;83;21011;-68
2022/03/15 03:45:34;;;;;;;14.20;7.80;;;;;;;-3.96;68.50;97397.38;1712596;84;21003;-68
2022/03/15 03:48:01;;;;;;;12.30;7.33;;;;;;;-3.85;68.08;97400.28;1712764;84;20996;-68
2022/03/15 03:50:28;;;;;;;10.53;6.37;;;;;;;-3.70;67.72;97399.11;1712782;84;21079;-68
2022/03/15 03:52:56;;;;;;;13.30;7.17;;;;;;;-3.73;67.14;97405.33;1693914;84;22057;-68
2022/03/15 03:55:22;;;;;;;15.03;7.73;;;;;;;-3.87;67.38;97397.99;1712437;84;21011;-68
2022/03/15 03:57:49;;;;;;;15.73;8.10;;;;;;;-3.86;67.49;97395.90;1712862;83;21047;-68
2022/03/15 04:00:17;;;;;;;14.07;7.77;;;;;;;-3.74;67.57;97390.25;1712757;84;21035;-68
2022/03/15 04:02:44;;;;;;;15.10;7.60;;;;;;;-3.68;67.23;97384.59;1712824;84;21492;-68
2022/03/15 04:05:11;;;;;;;12.30;7.77;;;;;;;-3.57;67.08;97388.78;1712900;84;21008;-68
2022/03/15 04:07:41;;;;;;;17.33;9.77;;;;;;;-3.47;67.28;97394.54;1712738;84;21454;-68
2022/03/15 04:10:08;;;;;;;27.17;12.30;;;;;;;-3.62;67.57;97397.02;1712916;83;21553;-68
2022/03/15 04:12:39;;;;;;;13.13;8.13;;;;;;;-3.72;66.95;97393.83;1712851;84;20988;-68
2022/03/15 04:15:07;;;;;;;14.53;8.33;;;;;;;-3.77;67.40;97393.94;1712824;83;21553;-68
2022/03/15 04:17:34;;;;;;;15.70;8.40;;;;;;;-3.68;67.63;97386.28;1713029;84;21007;-68
2022/03/15 04:20:01;;;;;;;14.67;8.07;;;;;;;-3.58;67.49;97387.37;1712827;83;21098;-68
2022/03/15 04:22:28;;;;;;;16.33;9.47;;;;;;;-3.44;66.87;97388.28;1712622;84;21031;-68
2022/03/15 04:24:54;;;;;;;16.33;9.93;;;;;;;-3.35;66.61;97388.47;1712825;84;21019;-71
2022/03/15 04:27:21;;;;;;;18.63;9.43;;;;;;;-3.41;66.62;97386.77;1712833;84;21019;-67
2022/03/15 04:29:47;;;;;;;28.37;14.37;;;;;;;-3.56;66.50;97387.97;1712841;83;21020;-67
2022/03/15 04:32:14;;;;;;;49.20;22.03;;;;;;;-3.75;67.19;97386.31;1712677;83;21091;-66
2022/03/15 04:34:41;;;;;;;29.90;12.73;;;;;;;-3.93;66.92;97381.73;1712560;83;21055;-66
2022/03/15 04:37:08;;;;;;;16.43;8.20;;;;;;;-3.92;67.18;97383.50;1711717;84;21577;-68
2022/03/15 04:39:35;;;;;;;15.70;8.10;;;;;;;-3.77;67.07;97381.44;1663174;86;21079;-68
2022/03/15 04:42:02;;;;;;;13.67;7.70;;;;;;;-3.65;66.73;97386.48;1697876;84;21023;-67
2022/03/15 04:44:29;;;;;;;14.73;7.93;;;;;;;-3.64;67.00;97389.17;1663314;86;21095;-67
2022/03/15 04:46:56;;;;;;;16.20;7.87;;;;;;;-3.60;66.82;97387.70;1698056;83;21008;-67
2022/03/15 04:49:22;;;;;;;14.20;8.80;;;;;;;-3.53;66.69;97389.85;1663506;86;21018;-67
2022/03/15 04:51:49;;;;;;;14.93;8.33;;;;;;;-3.55;67.09;97389.77;1697797;84;21062;-67
2022/03/15 04:54:15;;;;;;;15.80;8.77;;;;;;;-3.60;68.08;97407.94;1663564;86;21048;-67
2022/03/15 04:56:42;;;;;;;27.60;13.93;;;;;;;-3.62;68.16;97406.94;1697879;84;21023;-67
2022/03/15 04:59:09;;;;;;;13.87;7.37;;;;;;;-3.61;67.90;97413.87;1663540;86;20991;-67
2022/03/15 05:01:35;;;;;;;43.10;19.17;;;;;;;-3.58;67.10;97410.22;1697863;84;21087;-67
2022/03/15 05:04:02;;;;;;;69.87;28.80;;;;;;;-3.78;68.52;97401.19;1663582;86;21050;-67
2022/03/15 05:06:29;;;;;;;70.57;31.17;;;;;;;-3.95;68.15;97390.16;1661837;86;21022;-67
2022/03/15 05:08:55;;;;;;;39.13;18.27;;;;;;;-3.97;68.40;97393.02;1656589;87;21570;-67
2022/03/15 05:11:22;;;;;;;17.27;8.53;;;;;;;-3.97;68.76;97404.23;1656777;87;21055;-67
2022/03/15 05:13:49;;;;;;;14.63;7.70;;;;;;;-3.84;68.56;97395.61;1697887;84;21020;-67
2022/03/15 05:16:20;;;;;;;13.80;7.40;;;;;;;-3.66;68.39;97401.47;1663375;86;21003;-68
2022/03/15 05:18:53;;;;;;;47.60;24.13;;;;;;;-3.60;67.87;97395.44;1698019;84;21027;-67
2022/03/15 05:21:23;;;;;;;47.73;25.43;;;;;;;-3.50;67.84;97391.36;1663532;86;21038;-67
2022/03/15 05:23:49;;;;;;;51.13;26.20;;;;;;;-3.45;67.41;97383.52;1662273;86;21038;-67
2022/03/15 05:26:17;;;;;;;50.23;25.30;;;;;;;-3.42;67.32;97389.27;1656758;86;21067;-67
2022/03/15 05:28:45;;;;;;;46.73;25.77;;;;;;;-3.39;67.85;97390.34;1656802;87;21122;-67
2022/03/15 05:31:13;;;;;;;29.93;12.17;;;;;;;-3.26;67.50;97394.59;1697910;84;21003;-67
2022/03/15 05:33:39;;;;;;;10.97;6.03;;;;;;;-3.12;67.21;97395.08;1663378;86;21038;-67
2022/03/15 05:36:06;;;;;;;18.67;9.93;;;;;;;-3.15;66.74;97391.02;1698148;84;21054;-67
2022/03/15 05:38:32;;;;;;;12.77;6.97;;;;;;;-3.18;66.63;97388.22;1681147;84;21074;-67
2022/03/15 05:40:59;;;;;;;22.00;11.90;;;;;;;-3.10;67.45;97391.28;1699448;84;21054;-67
2022/03/15 05:43:26;;;;;;;36.20;20.13;;;;;;;-3.09;68.23;97390.50;1699544;84;21496;-67
2022/03/15 05:45:52;;;;;;;36.43;19.57;;;;;;;-3.09;69.00;97396.96;1699460;84;21091;-67
2022/03/15 05:48:19;;;;;;;36.63;19.47;;;;;;;-3.09;68.83;97397.84;1712999;84;21031;-67
2022/03/15 05:50:47;;;;;;;44.30;22.73;;;;;;;-3.17;69.34;97392.61;1712739;84;21083;-67
2022/03/15 05:53:13;;;;;;;29.97;17.93;;;;;;;-3.13;68.98;97391.09;1712780;84;21529;-67
2022/03/15 05:55:40;;;;;;;39.30;19.70;;;;;;;-3.07;68.54;97386.34;1712799;84;21007;-66
2022/03/15 05:58:07;;;;;;;38.13;19.70;;;;;;;-2.87;68.65;97384.59;1712900;84;21517;-68
2022/03/15 06:00:34;;;;;;;45.77;23.40;;;;;;;-2.65;68.14;97390.64;1712511;84;21047;-67
2022/03/15 06:03:01;;;;;;;53.00;31.90;;;;;;;-2.43;68.30;97391.96;1712844;84;21072;-66
2022/03/15 06:05:27;;;;;;;76.30;43.07;;;;;;;-2.33;66.75;97385.66;1712671;84;21043;-64
2022/03/15 06:07:54;;;;;;;57.00;31.67;;;;;;;-2.23;66.57;97390.57;1712403;84;21056;-70
2022/03/15 06:10:23;;;;;;;48.47;25.53;;;;;;;-2.19;66.69;97386.97;1712521;83;21059;-69
2022/03/15 06:12:52;;;;;;;37.10;21.13;;;;;;;-2.21;69.30;97378.63;1712748;83;20996;-67
2022/03/15 06:15:19;;;;;;;35.63;21.50;;;;;;;-2.18;69.37;97384.86;1712768;84;20995;-66
2022/03/15 06:17:56;;;;;;;46.10;27.93;;;;;;;-2.10;68.69;97384.42;1712693;84;21027;-69
2022/03/15 06:20:21;;;;;;;56.30;29.10;;;;;;;-1.88;69.08;97385.28;1712574;83;21039;-69
2022/03/15 06:22:49;;;;;;;47.67;27.57;;;;;;;-1.70;68.05;97377.69;1712628;84;21039;-69
2022/03/15 06:25:18;;;;;;;57.50;33.20;;;;;;;-1.52;67.85;97380.02;1708860;84;21107;-68
2022/03/15 06:27:47;;;;;;;55.60;34.43;;;;;;;-1.33;67.26;97375.07;1691235;85;21022;-67
2022/03/15 06:30:17;;;;;;;59.83;34.30;;;;;;;-1.17;66.44;97372.03;1694907;85;21021;-66
2022/03/15 06:32:44;;;;;;;41.37;21.70;;;;;;;-1.01;65.42;97369.87;1691658;85;21073;-66
2022/03/15 06:35:13;;;;;;;37.27;22.93;;;;;;;-0.85;64.45;97362.55;1694746;85;21008;-68
2022/03/15 06:37:47;;;;;;;41.63;26.03;;;;;;;-0.67;63.54;97368.28;1690961;85;21076;-66
2022/03/15 06:40:17;;;;;;;47.00;28.37;;;;;;;-0.56;61.93;97374.44;1671190;86;21086;-66
2022/03/15 06:42:45;;;;;;;50.37;29.43;;;;;;;-0.45;62.64;97370.32;1671207;86;21036;-65
2022/03/15 06:45:11;;;;;;;43.10;24.87;;;;;;;-0.32;62.34;97374.86;1671189;86;21080;-67
2022/03/15 06:47:39;;;;;;;38.23;23.53;;;;;;;-0.23;61.25;97374.01;1671550;86;21013;-64
2022/03/15 06:50:08;;;;;;;41.43;22.50;;;;;;;-0.11;61.44;97375.05;1670987;86;21610;-66
2022/03/15 06:52:37;;;;;;;41.33;23.27;;;;;;;0.01;61.24;97371.79;1671312;85;21031;-65
2022/03/15 06:55:05;;;;;;;47.70;26.03;;;;;;;0.17;60.87;97378.22;1670900;85;21021;-65
2022/03/15 06:57:32;;;;;;;49.73;26.70;;;;;;;0.33;60.26;97369.92;1671240;86;21471;-64
2022/03/15 06:59:59;;;;;;;46.77;26.23;;;;;;;0.38;60.37;97369.33;1658422;86;20989;-66
2022/03/15 07:02:27;;;;;;;38.20;22.70;;;;;;;0.49;60.36;97376.76;1656394;86;21513;-67
2022/03/15 07:04:54;;;;;;;34.97;20.53;;;;;;;0.63;59.08;97379.59;1642480;86;21049;-67
2022/03/15 07:07:21;;;;;;;27.77;16.77;;;;;;;0.68;59.23;97384.64;1642339;87;21088;-67
2022/03/15 07:09:48;;;;;;;27.57;16.57;;;;;;;0.70;58.42;97389.88;1642341;86;21101;-67
2022/03/15 07:12:15;;;;;;;26.93;15.43;;;;;;;0.76;58.14;97391.08;1642949;87;21013;-66
2022/03/15 07:14:43;;;;;;;31.10;17.83;;;;;;;0.88;57.96;97397.25;1642513;86;21049;-65
2022/03/15 07:17:10;;;;;;;34.13;17.43;;;;;;;0.96;57.09;97392.42;1642760;86;21021;-66
2022/03/15 07:19:37;;;;;;;29.07;16.23;;;;;;;1.04;57.62;97389.38;1642293;87;21084;-67
2022/03/15 07:22:06;;;;;;;41.80;18.17;;;;;;;1.16;57.89;97394.66;1642670;86;21076;-67
2022/03/15 07:24:34;;;;;;;30.23;17.07;;;;;;;1.32;57.92;97388.06;1642535;87;21075;-67
2022/03/15 07:27:01;;;;;;;28.03;16.77;;;;;;;1.41;56.06;97390.18;1642783;86;21028;-68
2022/03/15 07:29:28;;;;;;;31.30;18.23;;;;;;;1.49;56.57;97392.33;1642515;87;21519;-66
2022/03/15 07:31:56;;;;;;;33.90;16.67;;;;;;;1.58;56.47;97388.34;1642525;86;21511;-66
2022/03/15 07:34:23;;;;;;;23.53;14.87;;;;;;;1.73;56.37;97393.81;1642636;87;21044;-65
2022/03/15 07:36:49;;;;;;;27.97;16.90;;;;;;;1.87;56.17;97391.84;1650627;86;21018;-66
2022/03/15 07:39:17;;;;;;;27.07;16.33;;;;;;;1.99;56.40;97387.59;1695041;84;21044;-68
2022/03/15 07:41:44;;;;;;;26.03;16.13;;;;;;;2.12;55.51;97389.89;1715515;84;21083;-65
2022/03/15 07:44:11;;;;;;;24.70;12.37;;;;;;;2.19;54.23;97392.74;1715844;83;20976;-68
2022/03/15 07:46:40;;;;;;;24.10;13.83;;;;;;;2.27;54.41;97391.34;1716257;84;21022;-66
2022/03/15 07:49:07;;;;;;;30.57;13.43;;;;;;;2.40;54.08;97388.88;1715780;84;21530;-65
2022/03/15 07:51:34;;;;;;;18.47;11.73;;;;;;;2.49;54.21;97384.02;1715399;83;22214;-67
2022/03/15 07:54:01;;;;;;;21.30;11.70;;;;;;;2.64;54.64;97383.34;1715415;84;21104;-66
2022/03/15 07:56:27;;;;;;;24.47;13.37;;;;;;;2.78;54.13;97386.53;1715588;83;21028;-68
2022/03/15 07:58:54;;;;;;;24.70;12.80;;;;;;;2.88;54.68;97387.37;1715742;83;21024;-66
2022/03/15 08:01:21;;;;;;;29.57;13.67;;;;;;;3.04;53.71;97388.44;1715661;84;21115;-67
2022/03/15 08:03:49;;;;;;;23.80;12.80;;;;;;;3.17;54.14;97383.70;1716233;83;21008;-67
2022/03/15 08:06:17;;;;;;;24.27;12.70;;;;;;;3.25;53.72;97377.97;1711171;84;21067;-67
2022/03/15 08:08:45;;;;;;;26.43;13.03;;;;;;;3.35;52.90;97383.13;1698380;84;20989;-67
2022/03/15 08:11:11;;;;;;;28.37;14.27;;;;;;;3.46;52.86;97374.39;1697536;84;21037;-65
2022/03/15 08:13:38;;;;;;;21.47;12.00;;;;;;;3.60;52.15;97367.06;1692905;84;21301;-66
2022/03/15 08:16:05;;;;;;;21.40;12.83;;;;;;;3.67;51.80;97359.94;1702004;84;20996;-66
2022/03/15 08:18:35;;;;;;;23.77;12.33;;;;;;;3.76;52.44;97358.97;1701883;84;20977;-68
2022/03/15 08:21:02;;;;;;;24.07;11.47;;;;;;;3.83;51.68;97352.23;1701706;84;21539;-68
2022/03/15 08:23:29;;;;;;;20.40;12.20;;;;;;;3.90;51.81;97343.36;1699833;84;21002;-66
2022/03/15 08:25:58;;;;;;;18.77;10.47;;;;;;;4.09;51.83;97347.94;1684795;84;21012;-64
2022/03/15 08:28:26;;;;;;;20.13;11.43;;;;;;;4.26;51.70;97337.66;1713005;83;21547;-66
2022/03/15 08:30:54;;;;;;;15.17;9.73;;;;;;;4.46;50.76;97336.10;1715861;83;21027;-65
2022/03/15 08:33:23;;;;;;;13.43;9.03;;;;;;;4.65;49.68;97334.57;1715439;84;21521;-63
2022/03/15 08:35:50;;;;;;;13.67;8.67;;;;;;;4.91;49.25;97322.73;1685896;85;21525;-68
2022/03/15 08:38:16;;;;;;;16.30;9.20;;;;;;;5.16;49.45;97324.38;1683977;85;21042;-67
2022/03/15 08:40:43;;;;;;;14.93;8.80;;;;;;;5.40;48.71;97324.23;1707410;84;21107;-65
2022/03/15 08:43:10;;;;;;;19.97;7.87;;;;;;;5.57;44.16;97321.68;1689795;83;21078;-64
2022/03/15 08:45:38;;;;;;;11.90;7.50;;;;;;;5.79;46.84;97323.15;1704977;84;21005;-65
2022/03/15 08:48:05;;;;;;;12.50;8.10;;;;;;;6.04;46.59;97306.83;1715846;83;21011;-65
2022/03/15 08:50:33;;;;;;;11.90;7.23;;;;;;;6.34;46.70;97310.66;1714471;83;21090;-67
2022/03/15 08:53:01;;;;;;;8.80;6.57;;;;;;;6.60;45.77;97298.22;1697837;84;21495;-66
2022/03/15 08:55:28;;;;;;;10.93;7.27;;;;;;;6.84;42.85;97303.58;1719904;83;21024;-67
2022/03/15 08:57:55;;;;;;;11.50;7.40;;;;;;;7.03;39.69;97297.91;1715968;83;21005;-66
2022/03/15 09:00:23;;;;;;;12.73;7.97;;;;;;;7.17;39.08;97298.20;1696301;84;21123;-66
2022/03/15 09:02:50;;;;;;;16.27;9.10;;;;;;;7.27;36.54;97292.73;1698894;84;20999;-68
2022/03/15 09:05:18;;;;;;;12.90;7.47;;;;;;;7.47;37.54;97289.21;1709567;83;20943;-65
2022/03/15 09:07:51;;;;;;;10.23;6.20;;;;;;;7.67;38.62;97289.19;1714087;83;21091;-66
2022/03/15 09:10:16;;;;;;;8.13;6.00;;;;;;;7.86;34.59;97277.30;1688589;84;20982;-67
2022/03/15 09:12:42;;;;;;;10.47;6.90;;;;;;;7.97;35.55;97273.55;1710267;83;21469;-65
2022/03/15 09:15:10;;;;;;;10.97;6.70;;;;;;;8.00;32.59;97270.98;1684625;83;21049;-65
2022/03/15 09:17:37;;;;;;;11.30;6.67;;;;;;;8.07;33.44;97269.36;1710622;84;21014;-66
2022/03/15 09:20:08;;;;;;;12.67;7.00;;;;;;;8.20;35.02;97273.53;1704813;84;21081;-65
2022/03/15 09:22:35;;;;;;;9.27;6.10;;;;;;;8.35;33.27;97266.34;1707766;84;20998;-66
2022/03/15 09:25:04;;;;;;;14.10;8.50;;;;;;;8.47;33.79;97260.44;1707220;84;21033;-65
2022/03/15 09:27:31;;;;;;;10.73;6.77;;;;;;;8.53;32.29;97261.84;1707869;84;21010;-65
2022/03/15 09:29:58;;;;;;;13.30;7.03;;;;;;;8.68;31.80;97256.38;1707751;84;21037;-65
2022/03/15 09:32:27;;;;;;;9.80;6.20;;;;;;;8.74;31.39;97257.77;1707849;84;21053;-65
2022/03/15 09:34:54;;;;;;;10.30;6.70;;;;;;;8.81;31.14;97259.64;1707717;84;21065;-65
2022/03/15 09:37:21;;;;;;;11.97;6.50;;;;;;;8.97;31.17;97253.75;1707869;84;20978;-65
2022/03/15 09:39:52;;;;;;;11.17;6.57;;;;;;;9.10;32.00;97249.09;1700317;84;21101;-64
2022/03/15 09:42:21;;;;;;;11.67;6.70;;;;;;;9.27;32.07;97249.74;1693448;84;21116;-65
2022/03/15 09:44:49;;;;;;;11.40;6.30;;;;;;;9.41;32.92;97241.59;1694538;85;21087;-63
2022/03/15 09:47:20;;;;;;;12.60;6.53;;;;;;;9.49;31.21;97237.29;1694953;85;21046;-63
2022/03/15 09:49:47;;;;;;;13.73;6.93;;;;;;;9.66;31.45;97233.55;1694014;85;21018;-63
2022/03/15 09:52:16;;;;;;;17.70;15.20;;;;;;;9.47;28.39;97235.50;1695076;85;21078;-63
2022/03/15 09:54:43;;;;;;;12.80;7.37;;;;;;;9.50;28.75;97224.59;1695215;83;21030;-63
2022/03/15 09:57:11;;;;;;;13.33;7.80;;;;;;;9.55;29.14;97220.69;1694831;85;21074;-64
2022/03/15 09:59:38;;;;;;;13.47;6.83;;;;;;;9.77;30.26;97220.47;1695263;85;20994;-64
2022/03/15 10:02:05;;;;;;;21.60;8.10;;;;;;;10.01;30.80;97221.17;1695116;85;21050;-63
2022/03/15 10:04:31;;;;;;;15.53;7.03;;;;;;;10.12;29.22;97209.39;1695250;85;21081;-66
2022/03/15 10:06:58;;;;;;;10.03;6.60;;;;;;;10.25;29.54;97208.62;1695418;85;21022;-63
2022/03/15 10:09:26;;;;;;;8.47;5.80;;;;;;;10.45;29.43;97197.39;1695283;85;21065;-63
2022/03/15 10:11:53;;;;;;;13.03;7.37;;;;;;;10.47;28.02;97201.80;1695027;85;21098;-64
2022/03/15 10:14:20;;;;;;;11.20;7.97;;;;;;;10.39;29.46;97201.75;1695270;85;21039;-63
2022/03/15 10:16:50;;;;;;;14.07;8.30;;;;;;;10.49;28.99;97193.47;1675351;85;21038;-63
2022/03/15 10:19:17;;;;;;;9.43;6.47;;;;;;;10.64;28.42;97197.10;1695411;85;21472;-63
2022/03/15 10:21:50;;;;;;;13.00;7.23;;;;;;;10.81;28.69;97188.86;1695476;85;21058;-63
2022/03/15 10:24:24;;;;;;;13.50;6.27;;;;;;;10.98;27.85;97185.84;1695465;85;21508;-63
2022/03/15 10:26:54;;;;;;;10.40;6.90;;;;;;;11.02;28.82;97187.64;1695351;85;21034;-64
2022/03/15 10:29:23;;;;;;;10.53;7.00;;;;;;;11.17;28.45;97176.71;1695536;85;20998;-63
2022/03/15 10:31:51;;;;;;;10.27;6.40;;;;;;;11.29;27.20;97173.22;1695403;85;21034;-63
2022/03/15 10:34:19;;;;;;;8.00;6.03;;;;;;;11.37;28.05;97171.06;1695350;85;21521;-63
2022/03/15 10:36:53;;;;;;;10.07;5.80;;;;;;;11.39;26.89;97166.67;1695174;85;21083;-63
2022/03/15 10:39:20;;;;;;;7.70;5.80;;;;;;;11.36;27.53;97163.12;1696858;84;21034;-63
2022/03/15 10:41:53;;;;;;;9.60;6.27;;;;;;;11.31;26.04;97157.81;1703641;84;21042;-63
2022/03/15 10:44:34;;;;;;;7.72;5.25;;;;;;;11.37;26.89;97151.24;1703859;84;21548;-63
2022/03/15 10:47:12;;;;;;;9.43;5.73;;;;;;;11.53;26.60;97146.00;1703728;84;21524;-65
2022/03/15 10:49:49;;;;;;;9.10;6.07;;;;;;;11.48;28.45;97139.38;1703350;84;21034;-65
2022/03/15 10:52:38;;;;;;;24.80;10.80;;;;;;;11.86;27.84;97146.49;1703742;84;21503;-65
2022/03/15 10:55:19;;;;;;;13.23;8.87;;;;;;;12.13;28.26;97141.26;1703572;84;21009;-65
2022/03/15 10:58:03;;;;;;;20.43;9.90;;;;;;;12.38;28.15;97137.73;1684378;85;21086;-65
2022/03/15 11:00:35;;;;;;;6.87;4.90;;;;;;;12.53;25.31;97132.41;1685700;85;21493;-66
2022/03/15 11:03:13;;;;;;;10.60;6.00;;;;;;;12.75;26.91;97133.23;1685954;85;21557;-66
2022/03/15 11:05:41;;;;;;;9.45;5.28;;;;;;;13.05;26.47;97123.43;1685726;85;21565;-66
2022/03/15 11:08:13;;;;;;;15.78;9.03;;;;;;;13.49;26.64;97113.98;1685687;85;21074;-66
2022/03/15 11:10:43;;;;;;;23.10;10.23;;;;;;;13.98;24.40;97114.09;1685364;85;21074;-66
2022/03/15 11:13:12;;;;;;;19.65;9.80;;;;;;;14.15;23.62;97106.88;1703883;84;21496;-66
2022/03/15 11:15:44;;;;;;;8.48;5.85;;;;;;;14.41;23.15;97103.10;1685973;85;21490;-66
2022/03/15 11:18:13;;;;;;;10.75;6.20;;;;;;;14.59;23.55;97100.32;1685885;85;21039;-66
2022/03/15 11:20:45;;;;;;;11.83;7.37;;;;;;;14.80;22.22;97095.67;1685196;85;21533;-66
2022/03/15 11:23:15;;;;;;;10.58;7.95;;;;;;;14.98;21.67;97094.12;1685898;85;21035;-66
2022/03/15 11:25:46;;;;;;;11.55;8.25;;;;;;;15.24;21.87;97092.91;1685598;85;21130;-66
2022/03/15 11:28:24;;;;;;;16.25;8.13;;;;;;;15.49;22.24;97088.14;1686001;85;21042;-66